createdAt,value
2019-04-29T00:00:52.939Z,99.8260
2019-04-29T00:01:59.002Z,99.7559
2019-04-29T00:03:04.321Z,99.6429
2019-04-29T00:04:09.913Z,99.3805
2019-04-29T00:05:15.766Z,99.2401
2019-04-29T00:06:20.222Z,98.8647
2019-04-29T00:07:26.356Z,98.8052
2019-04-29T00:08:31.902Z,98.7396
2019-04-29T00:09:37.096Z,98.8281
2019-04-29T00:10:41.289Z,98.9319
2019-04-29T00:11:46.882Z,99.1623
2019-04-29T00:12:51.301Z,99.2386
2019-04-29T00:13:56.864Z,99.3347
2019-04-29T00:15:01.863Z,99.4461
2019-04-29T00:16:06.880Z,99.1943
2019-04-29T00:17:12.514Z,99.3484
2019-04-29T00:18:17.982Z,99.4186
2019-04-29T00:19:23.386Z,99.3866
2019-04-29T00:20:28.969Z,99.2981
2019-04-29T00:21:34.882Z,99.2493
2019-04-29T00:22:39.962Z,99.2172
2019-04-29T00:23:46.110Z,99.3805
2019-04-29T00:24:51.195Z,99.5102
2019-04-29T00:25:57.057Z,99.6826
2019-04-29T00:27:02.885Z,99.6017
2019-04-29T00:28:08.115Z,99.5636
2019-04-29T00:29:13.619Z,99.5560
2019-04-29T00:30:19.941Z,99.3454
2019-04-29T00:31:25.235Z,99.2386
2019-04-29T00:32:30.925Z,99.1836
2019-04-29T00:33:37.329Z,99.1562
2019-04-29T00:34:42.898Z,98.8129
2019-04-29T00:35:48.862Z,98.7808
2019-04-29T00:36:53.944Z,98.9563
2019-04-29T00:37:59.896Z,99.0158
2019-04-29T00:39:06.009Z,99.2950
2019-04-29T00:40:11.811Z,99.2996
2019-04-29T00:41:17.921Z,98.8586
2019-04-29T00:42:23.225Z,98.5290
2019-04-29T00:43:28.381Z,98.8220
2019-04-29T00:44:33.873Z,98.8129
2019-04-29T00:45:38.246Z,98.3001
2019-04-29T00:46:43.793Z,97.9568
2019-04-29T00:47:48.854Z,97.6501
2019-04-29T00:48:53.967Z,97.4304
2019-04-29T00:49:59.218Z,97.4823
2019-04-29T00:51:05.009Z,97.7249
2019-04-29T00:52:09.896Z,97.6593
2019-04-29T00:53:31.482Z,97.4029
2019-04-29T00:54:37.248Z,97.7462
2019-04-29T00:55:42.268Z,97.4548
2019-04-29T00:56:47.241Z,97.8347
2019-04-29T00:57:51.271Z,98.0621
2019-04-29T00:58:55.836Z,98.0987
2019-04-29T01:00:00.870Z,98.0438
2019-04-29T01:01:05.835Z,97.8195
2019-04-29T01:02:10.922Z,97.5357
2019-04-29T01:03:16.899Z,97.8439
2019-04-29T01:04:21.998Z,98.3734
2019-04-29T01:05:27.937Z,98.2681
2019-04-29T01:06:33.877Z,98.0316
2019-04-29T01:07:38.213Z,98.0392
2019-04-29T01:08:43.879Z,97.6699
2019-04-29T01:09:48.859Z,97.3800
2019-04-29T01:10:53.953Z,97.3449
2019-04-29T01:11:59.853Z,97.5631
2019-04-29T01:13:04.818Z,98.0224
2019-04-29T01:14:10.801Z,97.9751
2019-04-29T01:15:15.946Z,97.6043
2019-04-29T01:16:21.295Z,97.5906
2019-04-29T01:17:26.247Z,97.0382
2019-04-29T01:18:32.294Z,96.6201
2019-04-29T01:19:37.860Z,96.3684
2019-04-29T01:20:43.828Z,96.8597
2019-04-29T01:21:48.302Z,96.1089
2019-04-29T01:22:53.232Z,95.9762
2019-04-29T01:23:58.211Z,96.0204
2019-04-29T01:25:03.865Z,96.2036
2019-04-29T01:26:08.880Z,96.6766
2019-04-29T01:27:13.908Z,96.8734
2019-04-29T01:28:18.232Z,96.8643
2019-04-29T01:31:46.903Z,97.4533
2019-04-29T01:31:46.903Z,97.4304
2019-04-29T01:32:52.215Z,97.7417
2019-04-29T01:33:57.218Z,97.8759
2019-04-29T01:35:02.751Z,97.9522
2019-04-29T01:36:07.935Z,97.9950
2019-04-29T01:37:13.805Z,98.3795
2019-04-29T01:38:18.837Z,97.8698
2019-04-29T01:39:24.019Z,97.9400
2019-04-29T01:40:29.917Z,97.7523
2019-04-29T01:41:35.948Z,97.1161
2019-04-29T01:42:41.825Z,97.0550
2019-04-29T01:43:46.871Z,96.9497
2019-04-29T01:44:51.903Z,96.9451
2019-04-29T01:45:56.014Z,96.7163
2019-04-29T01:47:01.912Z,96.9406
2019-04-29T01:48:07.983Z,97.0749
2019-04-29T01:49:13.900Z,97.2656
2019-04-29T01:50:19.226Z,97.2168
2019-04-29T01:51:24.209Z,97.3022
2019-04-29T01:52:29.875Z,97.1252
2019-04-29T01:53:34.800Z,97.0565
2019-04-29T01:54:39.815Z,96.5606
2019-04-29T01:55:44.855Z,97.0794
2019-04-29T01:56:49.870Z,97.0291
2019-04-29T01:57:54.926Z,96.2600
2019-04-29T01:58:59.841Z,96.8231
2019-04-29T02:00:04.891Z,96.6705
2019-04-29T02:01:09.918Z,96.6171
2019-04-29T02:02:16.018Z,96.8917
2019-04-29T02:03:22.004Z,97.3297
2019-04-29T02:04:27.949Z,97.4990
2019-04-29T02:05:33.805Z,97.5601
2019-04-29T02:06:38.949Z,97.5952
2019-04-29T02:07:44.961Z,97.1832
2019-04-29T02:08:50.604Z,97.3404
2019-04-29T02:09:55.560Z,97.2519
2019-04-29T02:11:00.199Z,97.3953
2019-04-29T02:12:13.150Z,98.0209
2019-04-29T02:13:34.122Z,97.7066
2019-04-29T02:15:04.270Z,97.6974
2019-04-29T02:16:09.224Z,98.7488
2019-04-29T02:17:14.217Z,98.3200
2019-04-29T02:18:19.817Z,98.5657
2019-04-29T02:19:24.950Z,98.7213
2019-04-29T02:20:30.879Z,98.6313
2019-04-29T02:21:35.909Z,98.6679
2019-04-29T02:22:41.983Z,98.2651
2019-04-29T02:23:47.948Z,98.5245
2019-04-29T02:24:53.868Z,98.2635
2019-04-29T02:25:58.667Z,98.0179
2019-04-29T02:27:05.729Z,97.5448
2019-04-29T02:28:10.225Z,97.3083
2019-04-29T02:29:15.886Z,97.4945
2019-04-29T02:30:20.311Z,97.6822
2019-04-29T02:31:25.956Z,97.6699
2019-04-29T02:32:32.110Z,98.2284
2019-04-29T02:33:37.213Z,98.3688
2019-04-29T02:34:42.218Z,98.6542
2019-04-29T02:35:47.897Z,98.7823
2019-04-29T02:36:53.830Z,98.6435
2019-04-29T02:37:58.865Z,98.8037
2019-04-29T02:39:03.824Z,99.0234
2019-04-29T02:40:08.905Z,99.2218
2019-04-29T02:41:14.907Z,99.1516
2019-04-29T02:42:20.899Z,99.1470
2019-04-29T02:43:26.945Z,99.0967
2019-04-29T02:44:32.223Z,99.2157
2019-04-29T02:45:38.256Z,99.2950
2019-04-29T02:46:43.809Z,99.5331
2019-04-29T02:47:48.947Z,99.6475
2019-04-29T02:48:55.082Z,99.8978
2019-04-29T02:50:01.002Z,100.0000
2019-04-29T02:51:06.222Z,100.0000
2019-04-29T02:52:11.230Z,100.0000
2019-04-29T02:53:16.765Z,100.0000
2019-04-29T02:54:21.892Z,100.0000
2019-04-29T02:55:26.894Z,100.0000
2019-04-29T02:56:32.966Z,100.0000
2019-04-29T02:57:38.928Z,100.0000
2019-04-29T02:58:44.235Z,100.0000
2019-04-29T02:59:49.949Z,100.0000
2019-04-29T03:00:56.134Z,100.0000
2019-04-29T03:02:29.735Z,100.0000
2019-04-29T03:03:34.800Z,100.0000
2019-04-29T03:04:39.749Z,100.0000
2019-04-29T03:05:44.820Z,100.0000
2019-04-29T03:06:49.870Z,100.0000
2019-04-29T03:07:54.959Z,100.0000
2019-04-29T03:09:00.891Z,100.0000
2019-04-29T03:10:06.226Z,100.0000
2019-04-29T03:11:11.867Z,100.0000
2019-04-29T03:12:17.200Z,100.0000
2019-04-29T03:13:22.968Z,100.0000
2019-04-29T03:14:28.846Z,100.0000
2019-04-29T03:15:33.910Z,100.0000
2019-04-29T03:16:38.887Z,100.0000
2019-04-29T03:17:45.016Z,100.0000
2019-04-29T03:18:51.147Z,100.0000
2019-04-29T03:19:56.995Z,100.0000
2019-04-29T03:21:01.886Z,100.0000
2019-04-29T03:22:06.258Z,100.0000
2019-04-29T03:23:11.897Z,100.0000
2019-04-29T03:24:17.117Z,100.0000
2019-04-29T03:25:22.877Z,100.0000
2019-04-29T03:26:26.874Z,100.0000
2019-04-29T03:27:32.191Z,100.0000
2019-04-29T03:28:37.851Z,100.0000
2019-04-29T03:29:42.446Z,100.0000
2019-04-29T03:30:47.881Z,100.0000
2019-04-29T03:31:52.967Z,100.0000
2019-04-29T03:32:58.892Z,100.0000
2019-04-29T03:34:04.924Z,100.0000
2019-04-29T03:35:09.939Z,100.0000
2019-04-29T03:36:15.969Z,100.0000
2019-04-29T03:37:21.749Z,100.0000
2019-04-29T03:38:26.206Z,100.0000
2019-04-29T03:39:32.310Z,99.9634
2019-04-29T03:40:37.834Z,99.9435
2019-04-29T03:41:42.858Z,100.0000
2019-04-29T03:42:47.896Z,100.0000
2019-04-29T03:43:53.879Z,100.0000
2019-04-29T03:44:58.275Z,100.0000
2019-04-29T03:46:03.811Z,100.0000
2019-04-29T03:47:08.211Z,99.7116
2019-04-29T03:48:13.867Z,99.4583
2019-04-29T03:49:19.045Z,99.4720
2019-04-29T03:50:29.046Z,99.6094
2019-04-29T03:51:34.899Z,99.5102
2019-04-29T03:52:40.847Z,99.3759
2019-04-29T03:53:46.104Z,99.1150
2019-04-29T03:54:51.872Z,98.8373
2019-04-29T03:55:56.222Z,98.8724
2019-04-29T03:57:01.819Z,98.8083
2019-04-29T03:58:06.819Z,98.6252
2019-04-29T03:59:11.906Z,98.4604
2019-04-29T04:00:17.862Z,98.6023
2019-04-29T04:01:22.234Z,98.6633
2019-04-29T04:02:27.960Z,98.7320
2019-04-29T04:03:34.064Z,98.9181
2019-04-29T04:04:39.914Z,99.1348
2019-04-29T04:05:45.857Z,99.3027
2019-04-29T04:06:51.432Z,99.2798
2019-04-29T04:07:56.887Z,99.4034
2019-04-29T04:09:06.005Z,99.5773
2019-04-29T04:10:11.892Z,99.7742
2019-04-29T04:11:17.527Z,99.9771
2019-04-29T04:12:22.821Z,100.0000
2019-04-29T04:13:27.209Z,100.0000
2019-04-29T04:14:32.921Z,100.0000
2019-04-29T04:15:39.382Z,100.0000
2019-04-29T04:16:44.971Z,100.0000
2019-04-29T04:17:50.950Z,100.0000
2019-04-29T04:18:56.965Z,99.9634
2019-04-29T04:20:30.518Z,100.0000
2019-04-29T04:21:36.883Z,100.0000
2019-04-29T04:22:42.227Z,100.0000
2019-04-29T04:23:47.809Z,100.0000
2019-04-29T04:24:51.870Z,100.0000
2019-04-29T04:25:56.885Z,100.0000
2019-04-29T04:27:02.861Z,100.0000
2019-04-29T04:28:07.942Z,100.0000
2019-04-29T04:29:13.826Z,100.0000
2019-04-29T04:30:41.925Z,100.0000
2019-04-29T04:31:47.823Z,100.0000
2019-04-29T04:32:52.973Z,100.0000
2019-04-29T04:33:58.955Z,100.0000
2019-04-29T04:35:04.225Z,99.8657
2019-04-29T04:36:09.533Z,99.6185
2019-04-29T04:37:14.861Z,99.4537
2019-04-29T04:38:19.219Z,99.1882
2019-04-29T04:39:24.913Z,99.0280
2019-04-29T04:40:30.833Z,98.8464
2019-04-29T04:41:35.940Z,98.6862
2019-04-29T04:42:42.019Z,99.0890
2019-04-29T04:43:50.670Z,98.7320
2019-04-29T04:44:55.934Z,98.9426
2019-04-29T04:46:01.854Z,99.2309
2019-04-29T04:47:06.878Z,99.0417
2019-04-29T04:48:12.905Z,99.7345
2019-04-29T04:49:18.914Z,99.8764
2019-04-29T04:50:25.547Z,99.8154
2019-04-29T04:51:31.233Z,99.8169
2019-04-29T04:52:36.901Z,100.0000
2019-04-29T04:53:42.863Z,100.0000
2019-04-29T04:54:48.011Z,100.0000
2019-04-29T04:55:53.910Z,100.0000
2019-04-29T04:56:59.859Z,100.0000
2019-04-29T04:58:04.951Z,100.0000
2019-04-29T04:59:10.952Z,100.0000
2019-04-29T05:00:20.031Z,100.0000
2019-04-29T05:01:26.159Z,99.9451
2019-04-29T05:02:31.192Z,99.8428
2019-04-29T05:03:36.951Z,99.6750
2019-04-29T05:04:41.223Z,99.5407
2019-04-29T05:05:47.184Z,99.3164
2019-04-29T05:06:51.212Z,99.0188
2019-04-29T05:07:56.296Z,98.8220
2019-04-29T05:09:01.208Z,99.0341
2019-04-29T05:10:06.793Z,99.0478
2019-04-29T05:11:11.926Z,98.7671
2019-04-29T05:12:17.832Z,98.3413
2019-04-29T05:13:28.168Z,97.8286
2019-04-29T05:14:32.928Z,96.8826
2019-04-29T05:15:37.900Z,96.4782
2019-04-29T05:16:43.875Z,96.6384
2019-04-29T05:17:52.870Z,95.8831
2019-04-29T05:18:58.913Z,95.9350
2019-04-29T05:20:04.990Z,95.6878
2019-04-29T05:21:10.196Z,95.6146
2019-04-29T05:22:17.039Z,95.5947
2019-04-29T05:23:23.140Z,95.9258
2019-04-29T05:24:28.197Z,96.5072
2019-04-29T05:25:34.287Z,95.2697
2019-04-29T05:26:39.929Z,95.6130
2019-04-29T05:27:45.882Z,96.5011
2019-04-29T05:28:50.936Z,95.9609
2019-04-29T05:29:56.225Z,95.7092
2019-04-29T05:31:02.962Z,95.7641
2019-04-29T05:32:08.858Z,96.8215
2019-04-29T05:33:14.766Z,96.2280
2019-04-29T05:34:20.197Z,95.8526
2019-04-29T05:35:26.433Z,97.3068
2019-04-29T05:36:34.056Z,97.2030
2019-04-29T05:37:41.247Z,96.6567
2019-04-29T05:38:47.004Z,96.1028
2019-04-29T05:39:52.813Z,95.9014
2019-04-29T05:40:57.938Z,95.8419
2019-04-29T05:42:07.135Z,97.0016
2019-04-29T05:43:13.899Z,94.7311
2019-04-29T05:44:19.898Z,94.9554
2019-04-29T05:45:25.957Z,92.8985
2019-04-29T05:46:31.913Z,92.5292
2019-04-29T05:47:37.903Z,92.2988
2019-04-29T05:48:43.832Z,91.7037
2019-04-29T05:49:48.257Z,91.5450
2019-04-29T05:51:07.912Z,90.6752
2019-04-29T05:52:13.832Z,89.0181
2019-04-29T05:53:19.121Z,89.9779
2019-04-29T05:54:26.950Z,91.9844
2019-04-29T05:55:34.213Z,91.5724
2019-04-29T05:56:39.856Z,91.6350
2019-04-29T05:57:44.222Z,91.1040
2019-04-29T05:58:49.905Z,93.3837
2019-04-29T05:59:54.270Z,90.9682
2019-04-29T06:00:59.890Z,92.1492
2019-04-29T06:02:05.851Z,93.0419
2019-04-29T06:03:11.119Z,94.2397
2019-04-29T06:04:18.232Z,92.7062
2019-04-29T06:05:24.002Z,92.1172
2019-04-29T06:06:30.063Z,90.6233
2019-04-29T06:07:35.938Z,89.4026
2019-04-29T06:08:41.739Z,88.9158
2019-04-29T06:09:47.172Z,88.5359
2019-04-29T06:10:53.039Z,87.6570
2019-04-29T06:11:59.109Z,86.5904
2019-04-29T06:13:07.397Z,84.4617
2019-04-29T06:14:12.211Z,84.1413
2019-04-29T06:15:17.925Z,83.6332
2019-04-29T06:16:23.221Z,83.2135
2019-04-29T06:17:28.884Z,80.7324
2019-04-29T06:18:34.926Z,81.9501
2019-04-29T06:19:41.095Z,81.4511
2019-04-29T06:20:45.205Z,83.5691
2019-04-29T06:21:51.112Z,85.2354
2019-04-29T06:22:57.006Z,87.1366
2019-04-29T06:24:04.200Z,88.2292
2019-04-29T06:25:12.059Z,90.2251
2019-04-29T06:26:17.948Z,88.9036
2019-04-29T06:27:23.881Z,89.5018
2019-04-29T06:28:30.083Z,90.2357
2019-04-29T06:29:35.952Z,89.4530
2019-04-29T06:30:45.173Z,88.6839
2019-04-29T06:31:51.973Z,88.7343
2019-04-29T06:32:57.200Z,88.0476
2019-04-29T06:34:05.347Z,92.0668
2019-04-29T06:35:14.159Z,88.8441
2019-04-29T06:36:19.820Z,89.6345
2019-04-29T06:37:24.974Z,88.1621
2019-04-29T06:38:30.806Z,87.6661
2019-04-29T06:39:36.637Z,85.8961
2019-04-29T06:40:41.112Z,87.1275
2019-04-29T06:41:51.154Z,88.5283
2019-04-29T06:42:56.954Z,88.9662
2019-04-29T06:44:06.259Z,87.9179
2019-04-29T06:45:13.090Z,86.9123
2019-04-29T06:46:18.722Z,87.8035
2019-04-29T06:47:24.215Z,85.7542
2019-04-29T06:48:29.473Z,87.4281
2019-04-29T06:49:34.941Z,88.2261
2019-04-29T06:50:40.223Z,88.7892
2019-04-29T06:52:06.238Z,87.1626
2019-04-29T06:53:16.378Z,87.0359
2019-04-29T06:54:30.095Z,85.9129
2019-04-29T06:55:36.191Z,86.8055
2019-04-29T06:56:41.212Z,88.9525
2019-04-29T06:57:46.223Z,88.4504
2019-04-29T06:58:51.207Z,88.7526
2019-04-29T06:59:57.754Z,85.8412
2019-04-29T07:01:03.148Z,83.9399
2019-04-29T07:02:09.534Z,84.6738
2019-04-29T07:03:21.031Z,84.1245
2019-04-29T07:04:30.605Z,84.9027
2019-04-29T07:05:40.742Z,85.8488
2019-04-29T07:06:57.322Z,84.1566
2019-04-29T07:07:59.980Z,84.3992
2019-04-29T07:09:05.209Z,84.7288
2019-04-29T07:10:11.535Z,81.9532
2019-04-29T07:11:17.017Z,83.0213
2019-04-29T07:12:22.843Z,82.7192
2019-04-29T07:13:29.198Z,83.3875
2019-04-29T07:14:38.350Z,83.6027
2019-04-29T07:15:43.407Z,84.2191
2019-04-29T07:17:04.995Z,83.3722
2019-04-29T07:18:10.993Z,82.8870
2019-04-29T07:19:16.791Z,83.0304
2019-04-29T07:20:22.031Z,85.0034
2019-04-29T07:21:27.584Z,84.8371
2019-04-29T07:22:33.329Z,84.8371
2019-04-29T07:23:38.211Z,81.8311
2019-04-29T07:24:45.688Z,83.1662
2019-04-29T07:25:51.027Z,83.8666
2019-04-29T07:27:07.422Z,82.6673
2019-04-29T07:29:32.942Z,72.1843
2019-04-29T07:31:00.437Z,66.6209
2019-04-29T07:31:49.487Z,75.2560
2019-04-29T07:34:09.196Z,76.9497
2019-04-29T07:35:14.229Z,75.6786
2019-04-29T07:36:22.740Z,77.6928
2019-04-29T07:37:29.768Z,75.5993
2019-04-29T07:38:46.432Z,76.4645
2019-04-29T07:39:53.298Z,79.6521
2019-04-29T07:41:03.466Z,80.2182
2019-04-29T07:42:10.147Z,81.5702
2019-04-29T07:43:16.816Z,84.3992
2019-04-29T07:44:23.395Z,85.5879
2019-04-29T07:45:29.185Z,85.0263
2019-04-29T07:46:55.465Z,84.3565
2019-04-29T07:47:56.330Z,84.3061
2019-04-29T07:49:08.169Z,83.2135
2019-04-29T07:50:13.330Z,86.6926
2019-04-29T07:51:19.466Z,84.3748
2019-04-29T07:52:29.605Z,84.9928
2019-04-29T07:53:44.493Z,83.7980
2019-04-29T07:54:48.263Z,84.7318
2019-04-29T07:55:57.419Z,85.0492
2019-04-29T07:57:02.881Z,84.3076
2019-04-29T07:58:12.964Z,81.3687
2019-04-29T07:59:19.054Z,83.3143
2019-04-29T08:00:25.096Z,83.1403
2019-04-29T08:01:31.249Z,83.1250
2019-04-29T08:02:36.912Z,83.3234
2019-04-29T08:03:42.920Z,82.8107
2019-04-29T08:04:48.218Z,85.1621
2019-04-29T08:05:53.240Z,84.6189
2019-04-29T08:06:59.168Z,86.0151
2019-04-29T08:08:05.118Z,85.6611
2019-04-29T08:09:11.663Z,83.6423
2019-04-29T08:10:23.702Z,82.9572
2019-04-29T08:11:26.352Z,83.8621
2019-04-29T08:12:31.891Z,83.7247
2019-04-29T08:13:36.269Z,81.2726
2019-04-29T08:14:42.310Z,82.7863
2019-04-29T08:15:48.359Z,82.4796
2019-04-29T08:16:54.163Z,83.0900
2019-04-29T08:18:06.480Z,82.8275
2019-04-29T08:19:24.726Z,82.8611
2019-04-29T08:20:35.435Z,81.1292
2019-04-29T08:21:45.557Z,80.7736
2019-04-29T08:22:53.770Z,83.4546
2019-04-29T08:23:58.230Z,82.3987
2019-04-29T08:25:04.859Z,80.6531
2019-04-29T08:26:09.233Z,80.3159
2019-04-29T08:27:14.199Z,81.5137
2019-04-29T08:28:19.218Z,79.8169
2019-04-29T08:29:25.049Z,79.6384
2019-04-29T08:30:30.235Z,80.1541
2019-04-29T08:31:38.654Z,78.9731
2019-04-29T08:34:03.743Z,80.5768
2019-04-29T08:36:32.417Z,81.9486
2019-04-29T08:37:38.603Z,82.7955
2019-04-29T08:38:44.116Z,80.2792
2019-04-29T08:40:18.814Z,81.0849
2019-04-29T08:41:29.620Z,83.5645
2019-04-29T08:42:37.355Z,80.8011
2019-04-29T08:43:46.211Z,80.9003
2019-04-29T08:44:54.768Z,80.6271
2019-04-29T08:46:03.296Z,78.5885
2019-04-29T08:47:09.239Z,76.3455
2019-04-29T08:48:14.214Z,75.1919
2019-04-29T08:50:32.200Z,75.3201
2019-04-29T08:51:37.244Z,77.5418
2019-04-29T08:52:43.205Z,77.7523
2019-04-29T08:53:49.660Z,78.4482
2019-04-29T08:54:55.312Z,73.5073
2019-04-29T08:56:05.556Z,76.2951
2019-04-29T08:57:17.085Z,72.7153
2019-04-29T08:58:22.218Z,73.7408
2019-04-29T08:59:27.228Z,67.1336
2019-04-29T09:00:33.176Z,63.5920
2019-04-29T09:01:38.201Z,61.2253
2019-04-29T09:02:47.155Z,64.0574
2019-04-29T09:03:57.942Z,66.4210
2019-04-29T09:05:06.781Z,70.1473
2019-04-29T09:06:16.275Z,66.5019
2019-04-29T09:07:22.282Z,57.0901
2019-04-29T09:08:32.932Z,51.9142
2019-04-29T09:09:41.530Z,58.1613
2019-04-29T09:10:50.022Z,62.7161
2019-04-29T09:11:57.106Z,60.2365
2019-04-29T09:13:02.246Z,61.5091
2019-04-29T09:14:08.538Z,63.5081
2019-04-29T09:15:17.043Z,67.0603
2019-04-29T09:16:23.256Z,67.8798
2019-04-29T09:17:29.685Z,70.1060
2019-04-29T09:18:34.228Z,75.1888
2019-04-29T09:20:57.958Z,69.8085
2019-04-29T09:23:26.106Z,69.8314
2019-04-29T09:27:09.629Z,69.8848
2019-04-29T09:28:18.320Z,69.3721
2019-04-29T09:29:27.214Z,67.5410
2019-04-29T09:30:32.208Z,69.2119
2019-04-29T09:31:37.218Z,68.7602
2019-04-29T09:32:41.256Z,69.0349
2019-04-29T09:33:50.970Z,70.5135
2019-04-29T09:35:02.540Z,71.9402
2019-04-29T09:36:09.638Z,73.8094
2019-04-29T09:37:32.230Z,73.9101
2019-04-29T09:38:38.451Z,73.8811
2019-04-29T09:39:45.551Z,74.6731
2019-04-29T09:40:54.607Z,73.9590
2019-04-29T09:43:21.466Z,70.1610
2019-04-29T09:44:30.580Z,69.6696
2019-04-29T09:45:39.450Z,69.2210
2019-04-29T09:46:44.263Z,67.5731
2019-04-29T09:48:06.142Z,69.4469
2019-04-29T09:49:12.229Z,69.7292
2019-04-29T09:51:47.241Z,69.5689
2019-04-29T09:52:52.221Z,64.9500
2019-04-29T09:57:49.880Z,59.5392
2019-04-29T09:58:56.296Z,58.9670
2019-04-29T10:00:05.467Z,66.0624
2019-04-29T10:01:13.878Z,65.4444
2019-04-29T10:03:40.291Z,64.8447
2019-04-29T10:04:56.802Z,66.0960
2019-04-29T10:06:02.225Z,65.7572
2019-04-29T10:07:08.205Z,68.9250
2019-04-29T10:09:37.969Z,64.9912
2019-04-29T10:10:43.236Z,68.5756
2019-04-29T10:11:50.218Z,63.9170
2019-04-29T10:14:15.243Z,65.8610
2019-04-29T10:15:21.230Z,70.5486
2019-04-29T10:16:26.381Z,63.7888
2019-04-29T10:18:48.242Z,64.2634
2019-04-29T10:21:10.240Z,67.6875
2019-04-29T10:23:31.228Z,65.5695
2019-04-29T10:24:36.631Z,64.8600
2019-04-29T10:25:44.360Z,62.3819
2019-04-29T10:26:52.999Z,63.3066
2019-04-29T10:27:58.242Z,64.2145
2019-04-29T10:29:13.722Z,63.7095
2019-04-29T10:30:26.770Z,63.7369
2019-04-29T10:32:48.860Z,65.7740
2019-04-29T10:33:54.806Z,64.1901
2019-04-29T10:35:08.063Z,66.2333
2019-04-29T10:37:33.267Z,63.8758
2019-04-29T10:40:10.960Z,65.1850
2019-04-29T10:41:19.091Z,65.3849
2019-04-29T10:42:24.249Z,61.3107
2019-04-29T10:44:44.279Z,60.2182
2019-04-29T10:45:51.110Z,65.0416
2019-04-29T10:46:56.237Z,62.0401
2019-04-29T10:48:02.757Z,62.1302
2019-04-29T10:50:23.903Z,59.7147
2019-04-29T10:51:29.230Z,61.4664
2019-04-29T10:52:38.672Z,63.2105
2019-04-29T10:53:46.718Z,61.8280
2019-04-29T10:54:56.743Z,62.4659
2019-04-29T10:56:05.559Z,62.9541
2019-04-29T10:57:14.744Z,62.0294
2019-04-29T10:58:28.144Z,61.2619
2019-04-29T10:59:36.093Z,63.2074
2019-04-29T11:00:43.207Z,63.4485
2019-04-29T11:02:01.050Z,65.0553
2019-04-29T11:03:02.207Z,62.6062
2019-04-29T11:04:10.284Z,62.3316
2019-04-29T11:05:14.990Z,62.3240
2019-04-29T11:06:21.057Z,61.5122
2019-04-29T11:07:27.808Z,58.8266
2019-04-29T11:08:33.769Z,65.4917
2019-04-29T11:09:46.233Z,59.0600
2019-04-29T11:11:01.884Z,58.4009
2019-04-29T11:12:04.215Z,61.0681
2019-04-29T11:13:11.056Z,60.5417
2019-04-29T11:14:16.221Z,62.1912
2019-04-29T11:15:21.225Z,64.0955
2019-04-29T11:16:27.676Z,62.0081
2019-04-29T11:17:39.812Z,62.1118
2019-04-29T11:18:47.584Z,62.3865
2019-04-29T11:19:52.938Z,61.1795
2019-04-29T11:20:58.219Z,62.2415
2019-04-29T11:22:04.745Z,60.9857
2019-04-29T11:23:16.650Z,61.4359
2019-04-29T11:24:20.856Z,60.2731
2019-04-29T11:25:26.221Z,58.3719
2019-04-29T11:26:34.665Z,58.9868
2019-04-29T11:27:40.884Z,58.2986
2019-04-29T11:28:51.032Z,58.7976
2019-04-29T11:29:58.601Z,55.5032
2019-04-29T11:31:14.389Z,58.4863
2019-04-29T11:32:29.079Z,55.8038
2019-04-29T11:33:40.164Z,58.0575
2019-04-29T11:34:48.596Z,56.0922
2019-04-29T11:35:59.119Z,57.3968
2019-04-29T11:37:07.273Z,58.5016
2019-04-29T11:38:12.940Z,59.6353
2019-04-29T11:39:18.395Z,60.3082
2019-04-29T11:40:26.022Z,56.6369
2019-04-29T11:41:35.223Z,60.9216
2019-04-29T11:42:41.907Z,58.6236
2019-04-29T11:43:50.988Z,58.7335
2019-04-29T11:45:01.828Z,56.0555
2019-04-29T11:46:10.011Z,58.7488
2019-04-29T11:47:21.035Z,57.0626
2019-04-29T11:48:30.240Z,55.4711
2019-04-29T11:49:36.353Z,59.4583
2019-04-29T11:50:45.206Z,55.5947
2019-04-29T11:52:08.656Z,54.8745
2019-04-29T11:53:02.125Z,58.0987
2019-04-29T11:54:12.256Z,57.1359
2019-04-29T11:55:20.203Z,58.1903
2019-04-29T11:56:25.648Z,62.0706
2019-04-29T11:57:40.789Z,61.1734
2019-04-29T11:58:41.459Z,60.5661
2019-04-29T11:59:49.332Z,61.5305
2019-04-29T12:00:55.543Z,61.8463
2019-04-29T12:02:01.395Z,60.6622
2019-04-29T12:03:07.129Z,61.1200
2019-04-29T12:04:12.223Z,61.3611
2019-04-29T12:05:17.874Z,65.0294
2019-04-29T12:06:23.554Z,62.5742
2019-04-29T12:07:32.430Z,62.4506
2019-04-29T12:08:38.496Z,61.7014
2019-04-29T12:09:43.748Z,61.6831
2019-04-29T12:11:06.763Z,57.6120
2019-04-29T12:12:08.060Z,59.9664
2019-04-29T12:13:13.213Z,61.2253
2019-04-29T12:14:19.144Z,60.4776
2019-04-29T12:15:25.099Z,61.1154
2019-04-29T12:16:30.215Z,60.7309
2019-04-29T12:17:36.240Z,61.8112
2019-04-29T12:18:41.367Z,62.0478
2019-04-29T12:19:47.214Z,65.5650
2019-04-29T12:20:54.003Z,64.2695
2019-04-29T12:22:00.455Z,63.0106
2019-04-29T12:23:05.834Z,63.5691
2019-04-29T12:24:10.230Z,61.6053
2019-04-29T12:25:15.195Z,66.4164
2019-04-29T12:26:20.267Z,63.8926
2019-04-29T12:27:25.206Z,60.6653
2019-04-29T12:28:32.943Z,62.4109
2019-04-29T12:29:42.229Z,64.3549
2019-04-29T12:32:07.731Z,61.8235
2019-04-29T12:33:14.825Z,60.3494
2019-04-29T12:34:21.117Z,61.1093
2019-04-29T12:35:26.323Z,62.3316
2019-04-29T12:36:35.065Z,63.6637
2019-04-29T12:37:42.867Z,63.4867
2019-04-29T12:38:49.598Z,62.3316
2019-04-29T12:39:59.711Z,63.1525
2019-04-29T12:41:04.216Z,64.4694
2019-04-29T12:42:14.039Z,67.7165
2019-04-29T12:43:19.236Z,65.0294
2019-04-29T12:44:34.670Z,66.2226
2019-04-29T12:45:34.284Z,63.3936
2019-04-29T12:46:40.464Z,62.0569
2019-04-29T12:47:45.262Z,63.0198
2019-04-29T12:48:50.978Z,62.9145
2019-04-29T12:49:57.895Z,63.2898
2019-04-29T12:51:04.145Z,64.6082
2019-04-29T12:52:11.690Z,65.7069
2019-04-29T12:53:17.290Z,68.4306
2019-04-29T12:54:22.943Z,66.1189
2019-04-29T12:55:43.702Z,66.2196
2019-04-29T12:56:42.951Z,65.4856
2019-04-29T12:57:51.584Z,65.8946
2019-04-29T12:58:59.689Z,65.2628
2019-04-29T13:00:09.098Z,65.9815
2019-04-29T13:01:15.346Z,66.3706
2019-04-29T13:02:24.461Z,68.6915
2019-04-29T13:03:36.546Z,70.0511
2019-04-29T13:04:45.060Z,67.1397
2019-04-29T13:05:58.281Z,65.4353
2019-04-29T13:07:06.922Z,63.2242
2019-04-29T13:08:12.930Z,64.5212
2019-04-29T13:09:18.767Z,65.5970
2019-04-29T13:10:24.724Z,66.7918
2019-04-29T13:11:45.438Z,68.8457
2019-04-29T13:12:44.236Z,67.5547
2019-04-29T13:13:55.479Z,67.3045
2019-04-29T13:15:02.934Z,69.4591
2019-04-29T13:16:08.914Z,68.5298
2019-04-29T13:17:15.195Z,66.8971
2019-04-29T13:18:23.491Z,68.6259
2019-04-29T13:19:31.103Z,68.6122
2019-04-29T13:20:37.094Z,67.7485
2019-04-29T13:21:44.657Z,71.0262
2019-04-29T13:22:51.900Z,65.7786
2019-04-29T13:24:12.557Z,64.9454
2019-04-29T13:25:08.267Z,64.6128
2019-04-29T13:26:26.998Z,63.3494
2019-04-29T13:27:29.055Z,64.9332
2019-04-29T13:28:34.769Z,64.3183
2019-04-29T13:29:44.969Z,63.9933
2019-04-29T13:30:51.552Z,63.7934
2019-04-29T13:32:01.911Z,66.1768
2019-04-29T13:33:16.645Z,64.2283
2019-04-29T13:34:24.608Z,66.5843
2019-04-29T13:35:31.440Z,65.8442
2019-04-29T13:36:38.078Z,64.6296
2019-04-29T13:37:44.913Z,66.9337
2019-04-29T13:38:51.236Z,65.7069
2019-04-29T13:39:58.219Z,64.6342
2019-04-29T13:41:13.362Z,65.3117
2019-04-29T13:42:15.736Z,66.3798
2019-04-29T13:43:20.657Z,66.3249
2019-04-29T13:44:32.522Z,64.6952
2019-04-29T13:45:39.514Z,63.2441
2019-04-29T13:46:46.196Z,64.6403
2019-04-29T13:47:56.168Z,63.7781
2019-04-29T13:49:12.918Z,63.5050
2019-04-29T13:50:23.150Z,63.2029
2019-04-29T13:51:35.951Z,61.8463
2019-04-29T13:52:37.505Z,61.5137
2019-04-29T13:53:42.527Z,66.3294
2019-04-29T13:54:47.242Z,61.9074
2019-04-29T13:56:10.454Z,64.2176
2019-04-29T13:57:08.802Z,59.3393
2019-04-29T13:58:14.220Z,59.2660
2019-04-29T13:59:20.163Z,63.0472
2019-04-29T14:00:26.348Z,63.4272
2019-04-29T14:01:33.380Z,63.5996
2019-04-29T14:02:39.902Z,62.5376